createdAt,value
2017-01-28T00:00:07.443Z,936.77
2017-01-28T00:00:36.065Z,936.73
2017-01-28T00:01:05.344Z,936.76
2017-01-28T00:01:33.897Z,936.75
2017-01-28T00:02:02.495Z,936.75
2017-01-28T00:02:31.101Z,936.75
2017-01-28T00:02:59.626Z,936.75
2017-01-28T00:03:28.280Z,936.76
2017-01-28T00:03:56.768Z,936.72
2017-01-28T00:04:25.361Z,936.75
2017-01-28T00:04:53.837Z,936.71
2017-01-28T00:05:22.360Z,936.72
2017-01-28T00:05:51.081Z,936.76
2017-01-28T00:06:19.606Z,936.74
2017-01-28T00:06:48.122Z,936.73
2017-01-28T00:07:16.746Z,936.74
2017-01-28T00:07:45.260Z,936.73
2017-01-28T00:08:13.880Z,936.72
2017-01-28T00:08:42.430Z,936.73
2017-01-28T00:09:11.048Z,936.67
2017-01-28T00:09:39.651Z,936.67
2017-01-28T00:10:08.169Z,936.72
2017-01-28T00:10:36.837Z,936.71
2017-01-28T00:11:05.451Z,936.7
2017-01-28T00:11:34.047Z,936.68
2017-01-28T00:12:02.514Z,936.69
2017-01-28T00:12:31.060Z,936.73
2017-01-28T00:12:59.712Z,936.74
2017-01-28T00:13:28.324Z,936.73
2017-01-28T00:13:56.933Z,936.7
2017-01-28T00:14:25.481Z,936.73
2017-01-28T00:14:54.007Z,936.71
2017-01-28T00:15:22.612Z,936.75
2017-01-28T00:15:51.125Z,936.79
2017-01-28T00:16:19.737Z,936.79
2017-01-28T00:16:48.264Z,936.81
2017-01-28T00:17:16.885Z,936.84
2017-01-28T00:17:45.504Z,936.93
2017-01-28T00:18:13.927Z,936.93
2017-01-28T00:18:42.560Z,936.94
2017-01-28T00:19:10.975Z,936.99
2017-01-28T00:19:39.604Z,937.02
2017-01-28T00:20:08.246Z,937.03
2017-01-28T00:20:36.698Z,937.05
2017-01-28T00:21:05.325Z,937.07
2017-01-28T00:21:34.006Z,937.09
2017-01-28T00:22:02.514Z,937.15
2017-01-28T00:22:31.309Z,937.14
2017-01-28T00:22:59.822Z,937.16
2017-01-28T00:23:28.410Z,937.21
2017-01-28T00:23:56.826Z,937.22
2017-01-28T00:24:25.331Z,937.27
2017-01-28T00:24:53.947Z,937.25
2017-01-28T00:25:22.565Z,937.29
2017-01-28T00:25:51.125Z,937.27
2017-01-28T00:26:19.782Z,937.27
2017-01-28T00:26:48.391Z,937.32
2017-01-28T00:27:17.014Z,937.32
2017-01-28T00:27:45.459Z,937.35
2017-01-28T00:28:14.062Z,937.34
2017-01-28T00:28:42.672Z,937.35
2017-01-28T00:29:11.286Z,937.37
2017-01-28T00:29:39.802Z,937.38
2017-01-28T00:30:08.443Z,937.39
2017-01-28T00:30:36.888Z,937.37
2017-01-28T00:31:05.406Z,937.4
2017-01-28T00:31:34.033Z,937.39
2017-01-28T00:32:02.663Z,937.39
2017-01-28T00:32:31.098Z,937.43
2017-01-28T00:32:59.721Z,937.47
2017-01-28T00:33:28.236Z,937.52
2017-01-28T00:33:56.860Z,937.49
2017-01-28T00:34:25.468Z,937.48
2017-01-28T00:34:54.089Z,937.53
2017-01-28T00:35:22.627Z,937.59
2017-01-28T00:35:51.159Z,937.56
2017-01-28T00:36:19.781Z,937.57
2017-01-28T00:36:48.408Z,937.54
2017-01-28T00:37:17.006Z,937.59
2017-01-28T00:37:45.602Z,937.57
2017-01-28T00:38:14.238Z,937.57
2017-01-28T00:38:42.779Z,937.6
2017-01-28T00:39:11.382Z,937.62
2017-01-28T00:39:40.004Z,937.61
2017-01-28T00:40:08.605Z,937.65
2017-01-28T00:40:37.135Z,937.61
2017-01-28T00:41:05.770Z,937.69
2017-01-28T00:41:34.293Z,937.75
2017-01-28T00:42:02.861Z,937.73
2017-01-28T00:42:31.448Z,937.73
2017-01-28T00:43:00.135Z,937.72
2017-01-28T00:43:28.749Z,937.78
2017-01-28T00:43:57.370Z,937.77
2017-01-28T00:44:25.998Z,937.78
2017-01-28T00:44:54.646Z,937.77
2017-01-28T00:45:23.262Z,937.77
2017-01-28T00:45:51.862Z,937.83
2017-01-28T00:46:20.388Z,937.83
2017-01-28T00:46:48.925Z,937.89
2017-01-28T00:47:17.543Z,937.9
2017-01-28T00:47:46.092Z,937.85
2017-01-28T00:48:14.711Z,937.93
2017-01-28T00:48:43.362Z,937.98
2017-01-28T00:49:11.947Z,937.97
2017-01-28T00:49:40.558Z,937.96
2017-01-28T00:50:09.077Z,938.01
2017-01-28T00:50:37.662Z,937.97
2017-01-28T00:51:06.259Z,938
2017-01-28T00:51:34.712Z,938.02
2017-01-28T00:52:03.291Z,938
2017-01-28T00:52:31.923Z,938.01
2017-01-28T00:53:00.531Z,937.97
2017-01-28T00:53:29.112Z,937.97
2017-01-28T00:53:57.753Z,937.94
2017-01-28T00:54:26.313Z,937.96
2017-01-28T00:54:54.920Z,937.97
2017-01-28T00:55:23.563Z,937.92
2017-01-28T00:55:52.169Z,937.95
2017-01-28T00:56:20.788Z,938.01
2017-01-28T00:56:49.369Z,937.95
2017-01-28T00:57:17.978Z,937.94
2017-01-28T00:57:46.603Z,938
2017-01-28T00:58:15.235Z,938.03
2017-01-28T00:58:43.840Z,938.03
2017-01-28T00:59:12.431Z,937.99
2017-01-28T00:59:41.020Z,938.03
2017-01-28T01:00:09.503Z,938.06
2017-01-28T01:00:38.135Z,938.04
2017-01-28T01:01:06.724Z,938.1
2017-01-28T01:01:35.328Z,938.06
2017-01-28T01:02:03.994Z,938.12
2017-01-28T01:02:32.603Z,938.09
2017-01-28T01:03:01.241Z,938.14
2017-01-28T01:03:29.853Z,938.11
2017-01-28T01:03:58.486Z,938.1
2017-01-28T01:04:27.043Z,938.15
2017-01-28T01:04:55.687Z,938.15
2017-01-28T01:05:24.345Z,938.12
2017-01-28T01:05:52.933Z,938.17
2017-01-28T01:06:21.529Z,938.18
2017-01-28T01:06:50.161Z,938.17
2017-01-28T01:07:18.791Z,938.12
2017-01-28T01:07:47.409Z,938.17
2017-01-28T01:08:16.013Z,938.19
2017-01-28T01:08:44.632Z,938.16
2017-01-28T01:09:13.246Z,938.22
2017-01-28T01:09:41.774Z,938.21
2017-01-28T01:10:10.363Z,938.19
2017-01-28T01:10:38.916Z,938.22
2017-01-28T01:11:07.521Z,938.26
2017-01-28T01:11:36.044Z,938.23
2017-01-28T01:12:04.655Z,938.22
2017-01-28T01:12:33.285Z,938.24
2017-01-28T01:13:01.900Z,938.24
2017-01-28T01:13:30.504Z,938.21
2017-01-28T01:13:59.013Z,938.22
2017-01-28T01:14:27.620Z,938.2
2017-01-28T01:14:56.212Z,938.17
2017-01-28T01:15:24.813Z,938.19
2017-01-28T01:15:53.423Z,938.17
2017-01-28T01:16:21.964Z,938.2
2017-01-28T01:16:50.580Z,938.17
2017-01-28T01:17:19.103Z,938.15
2017-01-28T01:17:47.696Z,938.15
2017-01-28T01:18:16.315Z,938.13
2017-01-28T01:18:44.946Z,938.13
2017-01-28T01:19:13.475Z,938.09
2017-01-28T01:19:41.985Z,938.06
2017-01-28T01:20:10.646Z,938.13
2017-01-28T01:20:39.252Z,938.11
2017-01-28T01:21:07.903Z,938.09
2017-01-28T01:21:36.410Z,938.09
2017-01-28T01:22:05.045Z,938.16
2017-01-28T01:22:33.673Z,938.13
2017-01-28T01:23:02.295Z,938.12
2017-01-28T01:23:30.817Z,938.09
2017-01-28T01:23:59.425Z,938.08
2017-01-28T01:24:28.063Z,938.1
2017-01-28T01:24:56.570Z,938.05
2017-01-28T01:25:25.164Z,938.07
2017-01-28T01:25:53.758Z,938.04
2017-01-28T01:26:22.285Z,938.03
2017-01-28T01:26:50.923Z,938.02
2017-01-28T01:27:19.368Z,938.03
2017-01-28T01:27:47.969Z,938.02
2017-01-28T01:28:16.623Z,937.98
2017-01-28T01:28:45.238Z,937.99
2017-01-28T01:29:13.689Z,937.97
2017-01-28T01:29:42.325Z,937.97
2017-01-28T01:30:10.947Z,937.99
2017-01-28T01:30:39.503Z,937.98
2017-01-28T01:31:08.027Z,937.99
2017-01-28T01:31:36.637Z,937.99
2017-01-28T01:32:05.145Z,938.01
2017-01-28T01:32:33.772Z,938.04
2017-01-28T01:33:02.322Z,938.04
2017-01-28T01:33:30.946Z,938.01
2017-01-28T01:33:59.465Z,938.07
2017-01-28T01:34:27.887Z,938.06
2017-01-28T01:34:56.514Z,938.05
2017-01-28T01:35:25.140Z,938.02
2017-01-28T01:35:53.770Z,938.02
2017-01-28T01:36:22.302Z,937.99
2017-01-28T01:36:50.809Z,938
2017-01-28T01:37:19.459Z,938
2017-01-28T01:37:48.053Z,938
2017-01-28T01:38:16.934Z,937.94
2017-01-28T01:38:45.564Z,937.98
2017-01-28T01:39:14.093Z,937.98
2017-01-28T01:39:42.717Z,937.98
2017-01-28T01:40:11.339Z,937.95
2017-01-28T01:40:39.955Z,938.03
2017-01-28T01:41:08.632Z,937.97
2017-01-28T01:41:37.328Z,937.98
2017-01-28T01:42:05.930Z,937.98
2017-01-28T01:42:34.432Z,937.94
2017-01-28T01:43:03.078Z,937.94
2017-01-28T01:43:31.601Z,937.92
2017-01-28T01:44:00.214Z,937.92
2017-01-28T01:44:28.852Z,937.88
2017-01-28T01:44:57.456Z,937.87
2017-01-28T01:45:26.072Z,937.8
2017-01-28T01:45:54.652Z,937.76
2017-01-28T01:46:23.251Z,937.78
2017-01-28T01:46:51.783Z,937.75
2017-01-28T01:47:20.414Z,937.77
2017-01-28T01:47:48.911Z,937.71
2017-01-28T01:48:17.448Z,937.69
2017-01-28T01:48:46.090Z,937.68
2017-01-28T01:49:14.574Z,937.69
2017-01-28T01:49:43.024Z,937.67
2017-01-28T01:50:11.622Z,937.66
2017-01-28T01:50:40.238Z,937.64
2017-01-28T01:51:08.834Z,937.59
2017-01-28T01:51:37.357Z,937.57
2017-01-28T01:52:05.892Z,937.62
2017-01-28T01:52:34.492Z,937.6
2017-01-28T01:53:03.091Z,937.59
2017-01-28T01:53:31.689Z,937.63
2017-01-28T01:54:00.320Z,937.63
2017-01-28T01:54:28.968Z,937.58
2017-01-28T01:54:57.560Z,937.58
2017-01-28T01:55:26.127Z,937.61
2017-01-28T01:55:54.707Z,937.66
2017-01-28T01:56:23.343Z,937.62
2017-01-28T01:56:51.756Z,937.64
2017-01-28T01:57:20.295Z,937.62
2017-01-28T01:57:48.902Z,937.66
2017-01-28T01:58:17.486Z,937.61
2017-01-28T01:58:46.102Z,937.64
2017-01-28T01:59:14.713Z,937.7
2017-01-28T01:59:43.342Z,937.67
2017-01-28T02:00:11.985Z,937.68
2017-01-28T02:00:40.511Z,937.71
2017-01-28T02:01:09.140Z,937.68
2017-01-28T02:01:37.757Z,937.64
2017-01-28T02:02:06.273Z,937.67
2017-01-28T02:02:34.878Z,937.64
2017-01-28T02:03:03.485Z,937.66
2017-01-28T02:03:32.120Z,937.67
2017-01-28T02:04:00.722Z,937.59
2017-01-28T02:04:29.332Z,937.66
2017-01-28T02:04:57.957Z,937.63
2017-01-28T02:05:26.589Z,937.61
2017-01-28T02:05:55.258Z,937.63
2017-01-28T02:06:23.883Z,937.58
2017-01-28T02:06:52.539Z,937.59
2017-01-28T02:07:21.151Z,937.59
2017-01-28T02:07:49.925Z,937.55
2017-01-28T02:08:18.387Z,937.58
2017-01-28T02:08:47.022Z,937.53
2017-01-28T02:09:15.648Z,937.53
2017-01-28T02:09:44.255Z,937.51
2017-01-28T02:10:12.880Z,937.5
2017-01-28T02:10:41.513Z,937.47
2017-01-28T02:11:09.971Z,937.43
2017-01-28T02:11:38.571Z,937.44
2017-01-28T02:12:07.183Z,937.47
2017-01-28T02:12:35.880Z,937.47
2017-01-28T02:13:04.517Z,937.49
2017-01-28T02:13:33.090Z,937.48
2017-01-28T02:14:01.681Z,937.48
2017-01-28T02:14:30.307Z,937.5
2017-01-28T02:14:58.930Z,937.51
2017-01-28T02:15:27.555Z,937.54
2017-01-28T02:15:56.139Z,937.54
2017-01-28T02:16:24.775Z,937.52
2017-01-28T02:16:53.403Z,937.54
2017-01-28T02:17:22.032Z,937.55
2017-01-28T02:17:50.564Z,937.5
2017-01-28T02:18:19.109Z,937.51
2017-01-28T02:18:47.579Z,937.46
2017-01-28T02:19:16.139Z,937.47
2017-01-28T02:19:44.757Z,937.47
2017-01-28T02:20:13.267Z,937.46
2017-01-28T02:20:41.874Z,937.48
2017-01-28T02:21:10.412Z,937.48
2017-01-28T02:21:39.027Z,937.49
2017-01-28T02:22:07.667Z,937.49
2017-01-28T02:22:36.263Z,937.48
2017-01-28T02:23:04.791Z,937.48
2017-01-28T02:23:33.402Z,937.49
2017-01-28T02:24:02.016Z,937.49
2017-01-28T02:24:30.538Z,937.47
2017-01-28T02:24:59.056Z,937.48
2017-01-28T02:25:27.571Z,937.48
2017-01-28T02:25:56.222Z,937.48
2017-01-28T02:26:24.832Z,937.49
2017-01-28T02:26:53.451Z,937.48
2017-01-28T02:27:22.072Z,937.49
2017-01-28T02:27:50.701Z,937.47
2017-01-28T02:28:19.322Z,937.51
2017-01-28T02:28:47.942Z,937.48
2017-01-28T02:29:16.546Z,937.51
2017-01-28T02:29:45.074Z,937.49
2017-01-28T02:30:13.685Z,937.46
2017-01-28T02:30:42.300Z,937.47
2017-01-28T02:31:10.805Z,937.43
2017-01-28T02:31:39.413Z,937.47
2017-01-28T02:32:08.031Z,937.42
2017-01-28T02:32:36.639Z,937.44
2017-01-28T02:33:05.398Z,937.44
2017-01-28T02:33:33.905Z,937.45
2017-01-28T02:34:02.375Z,937.4
2017-01-28T02:34:31.010Z,937.39
2017-01-28T02:34:59.613Z,937.42
2017-01-28T02:35:28.236Z,937.42
2017-01-28T02:35:56.860Z,937.37
2017-01-28T02:36:25.434Z,937.39
2017-01-28T02:36:54.021Z,937.36
2017-01-28T02:37:22.647Z,937.38
2017-01-28T02:37:51.280Z,937.37
2017-01-28T02:38:19.908Z,937.38
2017-01-28T02:38:48.442Z,937.39
2017-01-28T02:39:17.024Z,937.37
2017-01-28T02:39:45.644Z,937.4
2017-01-28T02:40:14.263Z,937.35
2017-01-28T02:40:42.869Z,937.39
2017-01-28T02:41:11.469Z,937.43
2017-01-28T02:41:40.063Z,937.39
2017-01-28T02:42:08.716Z,937.37
2017-01-28T02:42:37.250Z,937.38
2017-01-28T02:43:05.854Z,937.43
2017-01-28T02:43:34.482Z,937.4
2017-01-28T02:44:03.128Z,937.37
2017-01-28T02:44:31.741Z,937.38
2017-01-28T02:45:00.368Z,937.37
2017-01-28T02:45:28.899Z,937.38
2017-01-28T02:45:57.520Z,937.31
2017-01-28T02:46:26.031Z,937.3
2017-01-28T02:46:54.641Z,937.28
2017-01-28T02:47:23.272Z,937.29
2017-01-28T02:47:51.700Z,937.27
2017-01-28T02:48:20.349Z,937.26
2017-01-28T02:48:48.881Z,937.25
2017-01-28T02:49:17.503Z,937.24
2017-01-28T02:49:46.021Z,937.27
2017-01-28T02:50:14.545Z,937.26
2017-01-28T02:50:43.144Z,937.24
2017-01-28T02:51:11.711Z,937.23
2017-01-28T02:51:40.194Z,937.26
2017-01-28T02:52:08.816Z,937.21
2017-01-28T02:52:37.341Z,937.2
2017-01-28T02:53:05.897Z,937.2
2017-01-28T02:53:34.498Z,937.2
2017-01-28T02:54:02.938Z,937.19
2017-01-28T02:54:31.554Z,937.16
2017-01-28T02:55:00.169Z,937.14
2017-01-28T02:55:28.782Z,937.1
2017-01-28T02:55:57.417Z,937.11
2017-01-28T02:56:25.881Z,937.06
2017-01-28T02:56:54.481Z,937.07
2017-01-28T02:57:23.120Z,937.07
2017-01-28T02:57:51.617Z,937.06
2017-01-28T02:58:20.260Z,937.02
2017-01-28T02:58:48.904Z,937
2017-01-28T02:59:17.467Z,937.01
2017-01-28T02:59:46.069Z,936.97
2017-01-28T03:00:14.527Z,936.94
2017-01-28T03:00:43.359Z,936.93
2017-01-28T03:01:11.989Z,936.94
2017-01-28T03:01:40.592Z,936.9
2017-01-28T03:02:09.227Z,936.91
2017-01-28T03:02:37.757Z,936.9
2017-01-28T03:03:06.376Z,936.89
2017-01-28T03:03:34.904Z,936.9
2017-01-28T03:04:03.428Z,936.88
2017-01-28T03:04:32.047Z,936.87
2017-01-28T03:05:00.539Z,936.88
2017-01-28T03:05:29.143Z,936.9
2017-01-28T03:05:57.768Z,936.92
2017-01-28T03:06:26.393Z,936.92
2017-01-28T03:06:54.921Z,936.96
2017-01-28T03:07:23.492Z,936.97
2017-01-28T03:07:52.111Z,936.94
2017-01-28T03:08:20.740Z,936.96
2017-01-28T03:08:49.380Z,936.96
2017-01-28T03:09:18.035Z,936.95
2017-01-28T03:09:46.539Z,936.95
2017-01-28T03:10:15.163Z,936.97
2017-01-28T03:10:43.825Z,936.92
2017-01-28T03:11:12.415Z,936.92
2017-01-28T03:11:41.037Z,936.89
2017-01-28T03:12:09.627Z,936.91
2017-01-28T03:12:38.152Z,936.95
2017-01-28T03:13:06.673Z,936.96
2017-01-28T03:13:35.272Z,936.88
2017-01-28T03:14:03.911Z,936.91
2017-01-28T03:14:32.556Z,936.95
2017-01-28T03:15:01.159Z,936.95
2017-01-28T03:15:29.768Z,936.88
2017-01-28T03:15:58.404Z,936.89
2017-01-28T03:16:27.024Z,936.88
2017-01-28T03:16:55.649Z,936.92
2017-01-28T03:17:24.189Z,936.86
2017-01-28T03:17:52.792Z,936.9
2017-01-28T03:18:21.436Z,936.91
2017-01-28T03:18:50.022Z,936.91
2017-01-28T03:19:18.548Z,936.88
2017-01-28T03:19:47.175Z,936.9
2017-01-28T03:20:15.792Z,936.88
2017-01-28T03:20:44.413Z,936.86
2017-01-28T03:21:13.026Z,936.85
2017-01-28T03:21:41.570Z,936.86
2017-01-28T03:22:10.085Z,936.87
2017-01-28T03:22:38.710Z,936.87
2017-01-28T03:23:07.219Z,936.83
2017-01-28T03:23:35.849Z,936.84
2017-01-28T03:24:04.466Z,936.79
2017-01-28T03:24:33.094Z,936.81
2017-01-28T03:25:01.648Z,936.8
2017-01-28T03:25:30.269Z,936.82
2017-01-28T03:25:58.879Z,936.8
2017-01-28T03:26:27.488Z,936.74
2017-01-28T03:26:56.110Z,936.8
2017-01-28T03:27:25.578Z,936.77
2017-01-28T03:27:55.233Z,936.78
2017-01-28T03:28:23.865Z,936.75
2017-01-28T03:28:52.496Z,936.75
2017-01-28T03:29:21.012Z,936.74
2017-01-28T03:29:49.625Z,936.73
2017-01-28T03:30:18.052Z,936.77
2017-01-28T03:30:46.596Z,936.76
2017-01-28T03:31:15.199Z,936.76
2017-01-28T03:31:43.827Z,936.72
2017-01-28T03:32:12.437Z,936.69
2017-01-28T03:32:41.094Z,936.7
2017-01-28T03:33:09.713Z,936.72
2017-01-28T03:33:38.227Z,936.69
2017-01-28T03:34:06.844Z,936.68
2017-01-28T03:34:35.482Z,936.72
2017-01-28T03:35:04.112Z,936.69
2017-01-28T03:35:32.676Z,936.68
2017-01-28T03:36:01.269Z,936.64
2017-01-28T03:36:29.781Z,936.67
2017-01-28T03:36:58.396Z,936.68
2017-01-28T03:37:26.927Z,936.64
2017-01-28T03:37:55.684Z,936.65
2017-01-28T03:38:24.312Z,936.66
2017-01-28T03:38:52.921Z,936.66
2017-01-28T03:39:21.509Z,936.64
2017-01-28T03:39:50.141Z,936.63
2017-01-28T03:40:18.729Z,936.64
2017-01-28T03:40:47.332Z,936.64
2017-01-28T03:41:15.856Z,936.59
2017-01-28T03:41:44.501Z,936.58
2017-01-28T03:42:13.179Z,936.58
2017-01-28T03:42:41.816Z,936.6
2017-01-28T03:43:10.334Z,936.61
2017-01-28T03:43:38.903Z,936.62
2017-01-28T03:44:07.519Z,936.59
2017-01-28T03:44:36.200Z,936.62
2017-01-28T03:45:04.805Z,936.6
2017-01-28T03:45:33.403Z,936.63
2017-01-28T03:46:01.915Z,936.61
2017-01-28T03:46:30.401Z,936.63
2017-01-28T03:46:58.991Z,936.68
2017-01-28T03:47:27.598Z,936.65
2017-01-28T03:47:56.215Z,936.65
2017-01-28T03:48:24.807Z,936.66
2017-01-28T03:48:53.377Z,936.64
2017-01-28T03:49:21.817Z,936.66
2017-01-28T03:49:50.347Z,936.63
2017-01-28T03:50:18.778Z,936.61
2017-01-28T03:50:47.325Z,936.64
2017-01-28T03:51:15.935Z,936.63
2017-01-28T03:51:44.526Z,936.6
2017-01-28T03:52:13.124Z,936.62
2017-01-28T03:52:41.737Z,936.6
2017-01-28T03:53:10.255Z,936.62
2017-01-28T03:53:38.861Z,936.59
2017-01-28T03:54:07.389Z,936.52
2017-01-28T03:54:35.991Z,936.54
2017-01-28T03:55:04.603Z,936.52
2017-01-28T03:55:33.201Z,936.49
2017-01-28T03:56:01.828Z,936.49
2017-01-28T03:56:30.427Z,936.52
2017-01-28T03:56:59.094Z,936.48
2017-01-28T03:57:27.434Z,936.44
2017-01-28T03:57:56.045Z,936.43
2017-01-28T03:58:24.531Z,936.46
2017-01-28T03:58:53.063Z,936.4
2017-01-28T03:59:21.711Z,936.4
2017-01-28T03:59:50.297Z,936.4
2017-01-28T04:00:18.912Z,936.39
2017-01-28T04:00:47.527Z,936.39
2017-01-28T04:01:16.145Z,936.35
2017-01-28T04:01:44.660Z,936.35
2017-01-28T04:02:13.200Z,936.39
2017-01-28T04:02:41.736Z,936.34
2017-01-28T04:03:10.291Z,936.33
2017-01-28T04:03:38.951Z,936.32
2017-01-28T04:04:07.361Z,936.34
2017-01-28T04:04:36.011Z,936.31
2017-01-28T04:05:04.632Z,936.3
2017-01-28T04:05:33.262Z,936.3
2017-01-28T04:06:01.830Z,936.28
2017-01-28T04:06:30.437Z,936.26
2017-01-28T04:06:58.922Z,936.31
2017-01-28T04:07:27.546Z,936.27
2017-01-28T04:07:56.102Z,936.25
2017-01-28T04:08:24.715Z,936.25
2017-01-28T04:08:53.257Z,936.26
2017-01-28T04:09:21.853Z,936.21
2017-01-28T04:09:50.393Z,936.22
2017-01-28T04:10:18.916Z,936.23
2017-01-28T04:10:47.526Z,936.21
2017-01-28T04:11:16.067Z,936.24
2017-01-28T04:11:45.984Z,936.29
2017-01-28T04:12:14.983Z,936.24
2017-01-28T04:12:43.538Z,936.24
2017-01-28T04:13:12.157Z,936.24
2017-01-28T04:13:40.668Z,936.24
2017-01-28T04:14:09.180Z,936.21
2017-01-28T04:14:37.790Z,936.23
2017-01-28T04:15:07.008Z,936.23
2017-01-28T04:15:36.476Z,936.26
2017-01-28T04:16:05.013Z,936.24
2017-01-28T04:16:33.608Z,936.23
2017-01-28T04:17:02.253Z,936.23
2017-01-28T04:17:30.754Z,936.22
2017-01-28T04:17:59.288Z,936.18
2017-01-28T04:18:27.808Z,936.21
2017-01-28T04:18:56.437Z,936.18
2017-01-28T04:19:25.118Z,936.18
2017-01-28T04:19:53.649Z,936.14
2017-01-28T04:20:22.290Z,936.15
2017-01-28T04:20:50.913Z,936.14
2017-01-28T04:21:19.559Z,936.13
2017-01-28T04:21:48.180Z,936.13
2017-01-28T04:22:16.825Z,936.13
2017-01-28T04:22:45.469Z,936.13
2017-01-28T04:23:13.988Z,936.1
2017-01-28T04:23:42.793Z,936.12
2017-01-28T04:24:12.414Z,936.12
2017-01-28T04:24:41.061Z,936.09
2017-01-28T04:25:09.686Z,936.09
2017-01-28T04:25:38.317Z,936.1
2017-01-28T04:26:06.851Z,936.11
2017-01-28T04:26:35.369Z,936.12
2017-01-28T04:27:03.883Z,936.1
2017-01-28T04:27:32.495Z,936.09
2017-01-28T04:28:01.128Z,936.07
2017-01-28T04:28:29.724Z,936.08
2017-01-28T04:28:58.260Z,936.06
2017-01-28T04:29:26.876Z,936.07
2017-01-28T04:29:55.491Z,936.09
2017-01-28T04:30:24.109Z,936.08
2017-01-28T04:30:52.712Z,936.09
2017-01-28T04:31:21.315Z,936.07
2017-01-28T04:31:49.924Z,936.04
2017-01-28T04:32:18.469Z,936.06
2017-01-28T04:32:47.104Z,936.06
2017-01-28T04:33:15.548Z,936.04
2017-01-28T04:33:44.180Z,936.04
2017-01-28T04:34:12.724Z,936.05
2017-01-28T04:34:41.253Z,936
2017-01-28T04:35:09.884Z,936.01
2017-01-28T04:35:38.489Z,936.04
2017-01-28T04:36:07.096Z,936.06
2017-01-28T04:36:35.524Z,936.04
2017-01-28T04:37:04.140Z,936.03
2017-01-28T04:37:32.747Z,936.04
2017-01-28T04:38:01.378Z,936.07
2017-01-28T04:38:29.976Z,936.03
2017-01-28T04:38:58.583Z,936.03
2017-01-28T04:39:27.179Z,936.05
2017-01-28T04:39:55.694Z,936.01
2017-01-28T04:40:24.221Z,936.05
2017-01-28T04:40:52.881Z,935.99
2017-01-28T04:41:21.499Z,936.01
2017-01-28T04:41:50.117Z,936.04
2017-01-28T04:42:18.635Z,936
2017-01-28T04:42:47.255Z,935.98
2017-01-28T04:43:15.760Z,935.97
2017-01-28T04:43:44.357Z,935.95
2017-01-28T04:44:12.875Z,935.92
2017-01-28T04:44:41.484Z,935.96
2017-01-28T04:45:09.908Z,935.98
2017-01-28T04:45:38.516Z,935.97
2017-01-28T04:46:07.130Z,935.97
2017-01-28T04:46:35.637Z,935.96
2017-01-28T04:47:04.248Z,936
2017-01-28T04:47:32.846Z,936
2017-01-28T04:48:01.444Z,936
2017-01-28T04:48:30.069Z,935.98
2017-01-28T04:48:58.680Z,936.01
2017-01-28T04:49:27.286Z,936.03
2017-01-28T04:49:55.905Z,936.02
2017-01-28T04:50:24.515Z,936.03
2017-01-28T04:50:53.145Z,936
2017-01-28T04:51:21.713Z,936.02
2017-01-28T04:51:50.278Z,936.01
2017-01-28T04:52:18.824Z,936.01
2017-01-28T04:52:47.468Z,936.02
2017-01-28T04:53:16.009Z,936.04
2017-01-28T04:53:44.533Z,936.05
2017-01-28T04:54:13.093Z,936.03
2017-01-28T04:54:41.747Z,936.08
2017-01-28T04:55:10.274Z,936.05
2017-01-28T04:55:38.895Z,936.06
2017-01-28T04:56:07.376Z,936.06
2017-01-28T04:56:35.897Z,936.07
2017-01-28T04:57:04.739Z,936.06
2017-01-28T04:57:33.372Z,936.07
2017-01-28T04:58:01.892Z,936.08
2017-01-28T04:58:30.560Z,936.08
2017-01-28T04:58:59.183Z,936.05
2017-01-28T04:59:27.785Z,936.07
2017-01-28T04:59:56.399Z,936.07
2017-01-28T05:00:24.940Z,936.07
2017-01-28T05:00:53.570Z,936.05
2017-01-28T05:01:22.171Z,936.05
2017-01-28T05:01:50.796Z,936.02
2017-01-28T05:02:19.422Z,936.07
2017-01-28T05:02:48.049Z,936.03
2017-01-28T05:03:16.702Z,936.04
2017-01-28T05:03:45.211Z,936.06
2017-01-28T05:04:13.731Z,936.04
2017-01-28T05:04:42.336Z,936.02
2017-01-28T05:05:10.918Z,936.01
2017-01-28T05:05:39.570Z,936.04
2017-01-28T05:06:08.173Z,936.03
2017-01-28T05:06:36.691Z,936.02
2017-01-28T05:07:05.305Z,936.02
2017-01-28T05:07:33.842Z,936.02
2017-01-28T05:08:02.451Z,936.01
2017-01-28T05:08:31.083Z,936.01
2017-01-28T05:08:59.538Z,935.99
2017-01-28T05:09:28.160Z,936.01
2017-01-28T05:09:56.795Z,936.03
2017-01-28T05:10:25.400Z,936
2017-01-28T05:10:54.021Z,935.99
2017-01-28T05:11:22.630Z,935.96
2017-01-28T05:11:51.172Z,935.97
2017-01-28T05:12:19.814Z,935.96
2017-01-28T05:12:48.434Z,935.95
2017-01-28T05:13:17.058Z,935.92
2017-01-28T05:13:45.653Z,935.95
2017-01-28T05:14:14.271Z,935.92
2017-01-28T05:14:42.775Z,935.88
2017-01-28T05:15:11.298Z,935.89
2017-01-28T05:15:39.898Z,935.87
2017-01-28T05:16:08.515Z,935.86
2017-01-28T05:16:37.151Z,935.84
2017-01-28T05:17:05.795Z,935.82
2017-01-28T05:17:34.551Z,935.83
2017-01-28T05:18:03.167Z,935.79
2017-01-28T05:18:31.804Z,935.79
2017-01-28T05:19:00.430Z,935.78
2017-01-28T05:19:29.050Z,935.81
2017-01-28T05:19:57.660Z,935.81
2017-01-28T05:20:26.211Z,935.85
2017-01-28T05:20:54.843Z,935.78
2017-01-28T05:21:23.457Z,935.79
2017-01-28T05:21:52.086Z,935.8
2017-01-28T05:22:20.608Z,935.77
2017-01-28T05:22:49.192Z,935.81
2017-01-28T05:23:17.817Z,935.79
2017-01-28T05:23:46.435Z,935.82
2017-01-28T05:24:15.088Z,935.81
2017-01-28T05:24:43.688Z,935.83
2017-01-28T05:25:12.223Z,935.82
2017-01-28T05:25:40.832Z,935.82
2017-01-28T05:26:09.458Z,935.84
2017-01-28T05:26:37.998Z,935.8
2017-01-28T05:27:06.610Z,935.82
2017-01-28T05:27:35.131Z,935.83
2017-01-28T05:28:03.551Z,935.85
2017-01-28T05:28:32.085Z,935.85
2017-01-28T05:29:00.732Z,935.82
2017-01-28T05:29:29.360Z,935.82
2017-01-28T05:29:57.774Z,935.79
2017-01-28T05:30:26.373Z,935.81
2017-01-28T05:30:54.990Z,935.79
2017-01-28T05:31:23.505Z,935.81
2017-01-28T05:31:52.099Z,935.77
2017-01-28T05:32:20.648Z,935.77
2017-01-28T05:32:49.242Z,935.78
2017-01-28T05:33:17.800Z,935.82
2017-01-28T05:33:46.464Z,935.76
2017-01-28T05:34:14.991Z,935.77
2017-01-28T05:34:43.603Z,935.76
2017-01-28T05:35:12.233Z,935.78
2017-01-28T05:35:40.810Z,935.73
2017-01-28T05:36:09.365Z,935.72
2017-01-28T05:36:37.989Z,935.76
2017-01-28T05:37:06.607Z,935.72
2017-01-28T05:37:35.131Z,935.74
2017-01-28T05:38:03.752Z,935.76
2017-01-28T05:38:32.371Z,935.74
2017-01-28T05:39:00.870Z,935.74
2017-01-28T05:39:29.398Z,935.72
2017-01-28T05:39:57.910Z,935.71
2017-01-28T05:40:26.526Z,935.7
2017-01-28T05:40:55.089Z,935.71
2017-01-28T05:41:23.693Z,935.7
2017-01-28T05:41:52.325Z,935.7
2017-01-28T05:42:20.974Z,935.71
2017-01-28T05:42:49.576Z,935.7
2017-01-28T05:43:18.135Z,935.65
2017-01-28T05:43:46.734Z,935.66
2017-01-28T05:44:15.378Z,935.65
2017-01-28T05:44:43.968Z,935.64
2017-01-28T05:45:12.488Z,935.66
2017-01-28T05:45:41.089Z,935.62
2017-01-28T05:46:09.697Z,935.6
2017-01-28T05:46:38.320Z,935.63
2017-01-28T05:47:06.942Z,935.63
2017-01-28T05:47:35.486Z,935.65
2017-01-28T05:48:04.076Z,935.63
2017-01-28T05:48:32.596Z,935.64
2017-01-28T05:49:01.412Z,935.62
2017-01-28T05:49:30.032Z,935.62
2017-01-28T05:49:58.634Z,935.57
2017-01-28T05:50:27.239Z,935.62
2017-01-28T05:50:55.763Z,935.58
2017-01-28T05:51:24.379Z,935.57
2017-01-28T05:51:52.995Z,935.58
2017-01-28T05:52:21.551Z,935.59
2017-01-28T05:52:50.022Z,935.61
2017-01-28T05:53:18.647Z,935.59
2017-01-28T05:53:47.278Z,935.58
2017-01-28T05:54:15.810Z,935.57
2017-01-28T05:54:44.325Z,935.54
2017-01-28T05:55:12.971Z,935.57
2017-01-28T05:55:41.475Z,935.54
2017-01-28T05:56:10.072Z,935.56
2017-01-28T05:56:38.698Z,935.57
2017-01-28T05:57:07.193Z,935.55
2017-01-28T05:57:35.743Z,935.53
2017-01-28T05:58:04.343Z,935.53